Time;durP1;ratioP1;P1;durP2;ratioP2;P2;SDS_P1;SDS_P2;PMS_P1;PMS_P2;Temp;Humidity;BMP_temperature;BMP_pressure;BME280_temperature;BME280_humidity;BME280_pressure;Samples;Min_cycle;Max_cycle;Signal;HPM_P1;HPM_P2
2023/06/07 00:00:55;;;;;;;4.33;3.43;;;14.50;99.90;;;;;;5150286;27;20604;-66
2023/06/07 00:03:21;;;;;;;3.67;3.37;;;14.60;99.90;;;;;;5150245;27;20177;-67
2023/06/07 00:05:47;;;;;;;3.23;2.70;;;14.50;99.90;;;;;;5150152;27;20180;-68
2023/06/07 00:08:13;;;;;;;4.40;3.50;;;14.40;99.90;;;;;;5149950;27;20200;-67
2023/06/07 00:10:39;;;;;;;3.67;3.00;;;14.40;99.90;;;;;;5150122;27;20513;-68
2023/06/07 00:13:05;;;;;;;3.20;2.73;;;14.40;99.90;;;;;;5131498;27;20230;-68
2023/06/07 00:15:30;;;;;;;4.73;3.67;;;14.50;99.90;;;;;;5150394;27;20448;-67
2023/06/07 00:17:59;;;;;;;3.17;2.77;;;14.50;99.90;;;;;;5149994;27;20709;-68
2023/06/07 00:20:29;;;;;;;4.63;2.80;;;14.60;99.90;;;;;;5131134;27;20177;-68
2023/06/07 00:22:58;;;;;;;3.83;2.90;;;14.70;99.90;;;;;;5149853;27;20414;-67
2023/06/07 00:25:24;;;;;;;4.07;2.80;;;14.80;99.90;;;;;;5149869;27;20970;-68
2023/06/07 00:27:49;;;;;;;5.83;3.30;;;14.80;99.90;;;;;;5149773;27;21074;-67
2023/06/07 00:30:17;;;;;;;2.83;2.60;;;14.90;99.90;;;;;;5149968;27;20440;-68
2023/06/07 00:32:43;;;;;;;3.60;3.00;;;14.80;99.90;;;;;;5149760;27;20609;-68
2023/06/07 00:35:11;;;;;;;3.10;2.50;;;14.70;99.90;;;;;;5149936;27;20406;-67
2023/06/07 00:37:37;;;;;;;3.90;3.20;;;14.70;99.90;;;;;;5149604;27;20470;-67
2023/06/07 00:40:03;;;;;;;3.30;3.00;;;14.70;99.90;;;;;;5131023;27;20425;-67
2023/06/07 00:42:29;;;;;;;3.80;2.70;;;14.60;99.90;;;;;;5149668;27;20176;-68
2023/06/07 00:44:55;;;;;;;5.10;3.50;;;14.50;99.90;;;;;;5130837;27;20489;-66
2023/06/07 00:47:21;;;;;;;6.03;3.40;;;14.40;99.90;;;;;;5150001;27;20609;-67
2023/06/07 00:49:47;;;;;;;3.10;2.80;;;14.20;99.90;;;;;;5149653;27;20183;-67
2023/06/07 00:52:14;;;;;;;3.90;3.50;;;14.10;99.90;;;;;;5149638;27;20550;-66
2023/06/07 00:54:39;;;;;;;3.83;2.90;;;14.10;99.90;;;;;;5131076;27;20422;-68
2023/06/07 00:57:06;;;;;;;6.97;3.27;;;14.00;99.90;;;;;;5149440;27;20466;-68
2023/06/07 00:59:31;;;;;;;3.70;3.40;;;14.00;99.90;;;;;;5149588;27;20180;-67
2023/06/07 01:01:57;;;;;;;4.93;3.37;;;14.00;99.90;;;;;;5149640;27;20907;-68
2023/06/07 01:04:24;;;;;;;4.40;3.90;;;14.00;99.90;;;;;;5149519;27;20536;-68
2023/06/07 01:06:52;;;;;;;4.63;3.70;;;14.00;99.90;;;;;;5149696;27;20435;-68
2023/06/07 01:09:19;;;;;;;4.93;3.43;;;14.00;99.90;;;;;;5131002;27;20419;-68
2023/06/07 01:11:50;;;;;;;4.57;3.17;;;14.00;99.90;;;;;;5130878;27;20516;-68
2023/06/07 01:14:17;;;;;;;5.00;3.73;;;13.90;99.90;;;;;;5131106;27;20937;-68
2023/06/07 01:16:44;;;;;;;4.17;3.60;;;13.80;99.90;;;;;;5152341;27;20421;-68
2023/06/07 01:19:23;;;;;;;5.80;3.10;;;13.70;99.90;;;;;;5153508;27;20495;-68
2023/06/07 01:21:59;;;;;;;5.67;3.43;;;13.70;99.90;;;;;;5153571;27;20871;-68
2023/06/07 01:24:29;;;;;;;11.80;3.13;;;13.60;99.90;;;;;;5153662;27;20780;-68
2023/06/07 01:27:00;;;;;;;3.63;3.33;;;13.60;99.90;;;;;;5153267;27;20464;-68
2023/06/07 01:29:26;;;;;;;3.10;2.90;;;13.60;99.90;;;;;;5153376;27;20422;-68
2023/06/07 01:31:54;;;;;;;4.53;3.20;;;13.50;99.90;;;;;;5153462;27;20405;-68
2023/06/07 01:34:21;;;;;;;5.00;4.10;;;13.40;99.90;;;;;;5153468;27;20402;-68
2023/06/07 01:36:49;;;;;;;6.93;3.00;;;13.30;99.90;;;;;;5153240;27;20521;-68
2023/06/07 01:39:17;;;;;;;4.30;3.80;;;13.40;99.90;;;;;;5153299;27;20418;-68
2023/06/07 01:41:44;;;;;;;5.20;3.10;;;13.30;99.90;;;;;;5153168;27;20428;-68
2023/06/07 01:44:12;;;;;;;7.07;3.13;;;13.30;99.90;;;;;;5153232;27;20436;-68
2023/06/07 01:46:39;;;;;;;5.67;3.83;;;13.30;99.90;;;;;;5134471;27;20410;-68
2023/06/07 01:49:06;;;;;;;4.10;3.47;;;13.10;99.90;;;;;;5153499;27;20500;-68
2023/06/07 01:51:32;;;;;;;4.03;3.63;;;13.10;99.90;;;;;;5153414;27;20423;-67
2023/06/07 01:53:58;;;;;;;6.30;3.87;;;13.00;99.90;;;;;;5134827;27;20414;-68
2023/06/07 01:56:26;;;;;;;3.50;3.20;;;12.80;99.90;;;;;;5134781;27;20462;-67
2023/06/07 01:59:14;;;;;;;8.47;3.50;;;12.80;99.90;;;;;;5153531;27;20457;-68
2023/06/07 02:01:49;;;;;;;5.47;3.10;;;12.90;99.90;;;;;;5153603;27;20424;-67
2023/06/07 02:04:19;;;;;;;3.80;3.37;;;12.90;99.90;;;;;;5153736;27;20409;-67
2023/06/07 02:06:47;;;;;;;5.17;3.77;;;12.70;99.90;;;;;;5153471;27;20519;-67
2023/06/07 02:09:16;;;;;;;4.80;3.07;;;12.70;99.90;;;;;;5153413;27;20427;-67
2023/06/07 02:11:42;;;;;;;3.67;3.37;;;12.60;99.90;;;;;;5153190;27;20433;-66
2023/06/07 02:14:09;;;;;;;12.30;3.87;;;12.60;99.90;;;;;;5153400;27;20982;-68
2023/06/07 02:16:35;;;;;;;5.50;3.70;;;12.50;99.90;;;;;;5153274;27;20409;-68
2023/06/07 02:19:09;;;;;;;6.53;3.60;;;12.50;99.90;;;;;;5153107;27;20476;-68
2023/06/07 02:21:36;;;;;;;11.63;4.33;;;12.50;99.90;;;;;;5152913;27;20454;-67
2023/06/07 02:24:03;;;;;;;4.47;3.30;;;12.30;99.90;;;;;;5152790;27;20419;-67
2023/06/07 02:26:30;;;;;;;4.63;3.53;;;12.20;99.90;;;;;;5151942;27;20961;-68
2023/06/07 02:28:55;;;;;;;3.77;3.40;;;12.30;99.90;;;;;;5133729;27;20417;-67
2023/06/07 02:31:21;;;;;;;8.50;4.30;;;12.20;99.90;;;;;;5133662;27;21110;-67
2023/06/07 02:33:48;;;;;;;6.20;3.80;;;12.10;99.90;;;;;;5152831;27;20179;-67
2023/06/07 02:36:14;;;;;;;5.10;3.47;;;12.20;99.90;;;;;;5152860;27;20405;-67
2023/06/07 02:38:39;;;;;;;7.60;3.53;;;11.90;99.90;;;;;;5152607;27;20465;-67
2023/06/07 02:41:05;;;;;;;6.50;3.87;;;11.80;99.90;;;;;;5152820;27;20349;-68
2023/06/07 02:43:31;;;;;;;9.33;4.40;;;11.60;99.90;;;;;;5134159;27;20185;-67
2023/06/07 02:45:56;;;;;;;5.60;4.00;;;11.50;99.90;;;;;;5152591;27;20173;-67
2023/06/07 02:48:22;;;;;;;4.40;3.50;;;11.60;99.90;;;;;;5152638;27;20279;-67
2023/06/07 02:50:47;;;;;;;4.10;3.70;;;11.70;99.90;;;;;;5134054;27;20183;-67
2023/06/07 02:53:13;;;;;;;4.20;3.80;;;11.90;99.90;;;;;;5152443;27;20180;-67
2023/06/07 02:55:39;;;;;;;4.57;3.90;;;11.80;99.90;;;;;;5152453;27;20180;-66
2023/06/07 02:58:05;;;;;;;4.10;3.70;;;11.70;99.90;;;;;;5133694;27;20299;-68
2023/06/07 03:00:31;;;;;;;3.97;3.57;;;11.70;99.90;;;;;;5152272;27;20452;-67
2023/06/07 03:02:57;;;;;;;8.13;3.97;;;11.70;99.90;;;;;;5133675;27;20406;-68
2023/06/07 03:05:26;;;;;;;4.67;4.17;;;11.80;99.90;;;;;;5133494;27;20421;-67
2023/06/07 03:07:52;;;;;;;4.30;3.90;;;11.80;99.90;;;;;;5151854;27;20198;-68
2023/06/07 03:10:18;;;;;;;4.33;3.60;;;11.70;99.90;;;;;;5151926;27;20416;-67
2023/06/07 03:12:43;;;;;;;6.07;4.00;;;11.80;99.90;;;;;;5151688;27;20431;-68
2023/06/07 03:15:09;;;;;;;4.50;3.80;;;11.80;99.90;;;;;;5151633;27;20914;-68
2023/06/07 03:17:36;;;;;;;3.93;3.63;;;11.90;99.90;;;;;;5151199;27;20208;-68
2023/06/07 03:20:05;;;;;;;4.50;4.07;;;11.90;99.90;;;;;;5151394;27;20497;-68
2023/06/07 03:22:31;;;;;;;11.60;4.30;;;11.90;99.90;;;;;;5151170;27;20919;-68
2023/06/07 03:24:57;;;;;;;5.93;3.93;;;11.90;99.90;;;;;;5151194;27;20466;-67
2023/06/07 03:27:23;;;;;;;5.63;3.80;;;11.90;99.90;;;;;;5150957;27;21036;-68
2023/06/07 03:29:50;;;;;;;4.80;3.73;;;12.00;99.90;;;;;;5151247;27;20179;-67
2023/06/07 03:32:15;;;;;;;4.40;4.00;;;11.70;99.90;;;;;;5151422;27;20434;-68
2023/06/07 03:34:42;;;;;;;4.37;3.60;;;11.60;99.90;;;;;;5151051;27;20423;-68
2023/06/07 03:37:08;;;;;;;4.07;3.67;;;11.40;99.90;;;;;;5150819;27;20206;-68
2023/06/07 03:39:35;;;;;;;10.60;4.03;;;11.40;99.90;;;;;;5150272;27;20504;-68
2023/06/07 03:42:01;;;;;;;6.03;4.07;;;11.40;99.90;;;;;;5151099;27;20426;-68
2023/06/07 03:44:26;;;;;;;7.50;4.03;;;11.50;99.90;;;;;;5150967;27;20407;-68
2023/06/07 03:46:52;;;;;;;5.47;3.47;;;11.60;99.90;;;;;;5151037;27;20263;-68
2023/06/07 03:49:18;;;;;;;4.47;3.80;;;11.70;99.90;;;;;;5150790;27;20192;-68
2023/06/07 03:51:43;;;;;;;6.80;3.70;;;11.70;99.90;;;;;;5132199;27;20178;-68
2023/06/07 03:54:10;;;;;;;6.17;4.63;;;11.80;99.90;;;;;;5150860;27;20187;-68
2023/06/07 03:56:36;;;;;;;5.50;3.60;;;11.80;99.90;;;;;;5150511;27;20166;-68
2023/06/07 03:59:01;;;;;;;6.33;4.00;;;11.80;99.90;;;;;;5150642;27;20916;-68
2023/06/07 04:01:27;;;;;;;5.93;4.20;;;11.80;99.90;;;;;;5150498;27;20412;-68
2023/06/07 04:03:53;;;;;;;5.63;3.93;;;11.90;99.90;;;;;;5150448;27;20187;-68
2023/06/07 04:06:24;;;;;;;5.80;3.73;;;11.70;99.90;;;;;;5131907;27;20179;-68
2023/06/07 04:08:53;;;;;;;5.10;4.53;;;11.80;99.90;;;;;;5150552;27;20190;-67
2023/06/07 04:11:19;;;;;;;4.40;3.90;;;12.00;99.90;;;;;;5150815;27;20430;-68
2023/06/07 04:13:45;;;;;;;5.30;4.67;;;12.00;99.90;;;;;;5131925;27;20416;-68
2023/06/07 04:16:11;;;;;;;5.60;4.93;;;12.00;99.90;;;;;;5150372;27;21105;-68
2023/06/07 04:18:36;;;;;;;4.13;3.53;;;12.10;99.90;;;;;;5131165;27;20742;-67
2023/06/07 04:21:02;;;;;;;4.50;3.80;;;12.20;99.90;;;;;;5149145;27;20476;-67
2023/06/07 04:23:28;;;;;;;4.50;4.10;;;12.30;99.90;;;;;;5149466;27;20208;-68
2023/06/07 04:25:54;;;;;;;5.60;3.40;;;12.40;99.90;;;;;;5148881;27;20670;-67
2023/06/07 04:28:23;;;;;;;4.70;3.53;;;12.40;99.90;;;;;;5148821;27;20199;-67
2023/06/07 04:30:53;;;;;;;6.30;3.90;;;12.50;99.90;;;;;;5148847;27;20416;-67
2023/06/07 04:33:20;;;;;;;8.80;4.00;;;12.50;99.90;;;;;;5148587;27;20432;-68
2023/06/07 04:35:46;;;;;;;9.20;4.20;;;12.60;99.90;;;;;;5148606;27;20497;-67
2023/06/07 04:38:20;;;;;;;5.30;3.97;;;12.70;99.90;;;;;;5148539;27;20453;-67
2023/06/07 04:40:49;;;;;;;5.30;4.47;;;12.80;99.90;;;;;;5148517;27;20417;-67
2023/06/07 04:43:18;;;;;;;5.00;4.60;;;12.90;99.90;;;;;;5148808;27;20825;-67
2023/06/07 04:45:44;;;;;;;5.83;4.83;;;12.90;99.90;;;;;;5148425;27;21123;-67
2023/06/07 04:48:13;;;;;;;6.37;3.97;;;13.00;99.90;;;;;;5129596;27;20513;-67
2023/06/07 04:50:41;;;;;;;5.00;4.50;;;13.20;99.90;;;;;;5151106;27;20449;-67
2023/06/07 04:53:10;;;;;;;5.13;4.07;;;13.20;99.90;;;;;;5152474;27;20433;-66
2023/06/07 04:55:37;;;;;;;5.10;4.60;;;13.30;99.90;;;;;;5152542;27;20828;-67
2023/06/07 04:58:05;;;;;;;4.63;4.23;;;13.40;99.90;;;;;;5152431;27;20453;-67
2023/06/07 05:00:31;;;;;;;7.00;4.00;;;13.40;99.90;;;;;;5152530;27;20436;-67
2023/06/07 05:03:06;;;;;;;5.53;4.87;;;13.50;99.90;;;;;;5152493;27;20417;-67
2023/06/07 05:05:37;;;;;;;8.10;4.47;;;13.50;99.90;;;;;;5152329;27;20414;-67
2023/06/07 05:08:04;;;;;;;6.30;4.43;;;13.70;99.90;;;;;;5152340;27;20448;-67
2023/06/07 05:10:30;;;;;;;8.73;4.50;;;13.80;99.90;;;;;;5153119;27;20417;-67
2023/06/07 05:12:55;;;;;;;8.57;4.10;;;13.90;99.90;;;;;;5152890;27;20413;-67
2023/06/07 05:15:24;;;;;;;6.20;3.63;;;13.90;99.90;;;;;;5153083;27;20429;-66
2023/06/07 05:17:50;;;;;;;5.63;4.13;;;14.00;99.90;;;;;;5133634;27;20204;-67
2023/06/07 05:20:16;;;;;;;4.00;3.67;;;14.20;99.90;;;;;;5153003;27;20410;-67
2023/06/07 05:22:42;;;;;;;5.40;4.00;;;14.30;99.90;;;;;;5152852;27;20962;-67
2023/06/07 05:25:10;;;;;;;4.83;3.73;;;14.40;99.90;;;;;;5153058;27;20421;-68
2023/06/07 05:27:37;;;;;;;4.37;3.97;;;14.60;99.90;;;;;;5152431;27;20449;-66
2023/06/07 05:30:04;;;;;;;4.73;3.97;;;14.60;99.90;;;;;;5152649;27;20410;-68
2023/06/07 05:32:30;;;;;;;8.93;4.10;;;14.70;99.90;;;;;;5152706;27;20425;-67
2023/06/07 05:34:57;;;;;;;6.93;4.50;;;14.80;99.90;;;;;;5152509;27;20446;-68
2023/06/07 05:37:27;;;;;;;8.37;5.10;;;14.90;99.90;;;;;;5152303;27;20574;-67
2023/06/07 05:39:53;;;;;;;4.77;4.30;;;14.90;99.90;;;;;;5152338;27;20543;-67
2023/06/07 05:42:18;;;;;;;4.57;4.13;;;15.00;99.90;;;;;;5152343;27;21083;-68
2023/06/07 05:44:46;;;;;;;6.10;4.67;;;15.10;99.90;;;;;;5152237;27;20419;-67
2023/06/07 05:47:12;;;;;;;7.17;4.90;;;15.10;99.90;;;;;;5152684;27;20568;-68
2023/06/07 05:49:37;;;;;;;5.80;4.60;;;15.20;99.90;;;;;;5151956;27;20414;-68
2023/06/07 05:52:03;;;;;;;5.70;4.03;;;15.30;99.90;;;;;;5133556;27;20414;-67
2023/06/07 05:54:29;;;;;;;5.47;4.57;;;15.50;99.90;;;;;;5151903;27;20182;-67
2023/06/07 05:56:54;;;;;;;6.33;4.90;;;15.60;99.90;;;;;;5151607;27;20436;-67
2023/06/07 05:59:20;;;;;;;10.23;4.50;;;15.80;99.90;;;;;;5151592;27;20193;-67
2023/06/07 06:01:46;;;;;;;5.17;4.67;;;15.80;99.90;;;;;;5150614;27;20180;-67
2023/06/07 06:04:12;;;;;;;6.53;5.20;;;15.90;99.90;;;;;;5151415;27;20264;-67
2023/06/07 06:06:38;;;;;;;6.37;4.43;;;16.00;99.90;;;;;;5132652;27;20445;-67
2023/06/07 06:09:07;;;;;;;7.70;4.40;;;16.00;99.90;;;;;;5151173;27;20541;-67
2023/06/07 06:11:33;;;;;;;5.23;4.57;;;16.20;99.90;;;;;;5132118;27;20177;-67
2023/06/07 06:13:58;;;;;;;6.90;4.07;;;16.30;99.90;;;;;;5150933;27;20894;-67
2023/06/07 06:16:24;;;;;;;6.23;4.53;;;16.40;99.90;;;;;;5151076;27;20201;-67
2023/06/07 06:18:50;;;;;;;6.20;4.80;;;16.40;99.90;;;;;;5132251;27;20263;-67
2023/06/07 06:21:15;;;;;;;4.20;3.90;;;16.50;99.90;;;;;;5151043;27;20176;-67
2023/06/07 06:23:41;;;;;;;4.80;4.30;;;16.60;99.90;;;;;;5150975;27;20189;-67
2023/06/07 06:26:06;;;;;;;4.30;3.90;;;16.70;99.90;;;;;;5150685;27;20677;-67
2023/06/07 06:28:32;;;;;;;4.17;3.83;;;16.80;99.90;;;;;;5150819;27;20294;-67
2023/06/07 06:30:59;;;;;;;7.60;3.73;;;16.90;99.90;;;;;;5150827;27;20182;-67
2023/06/07 06:33:25;;;;;;;10.00;3.90;;;17.00;99.90;;;;;;5131899;27;20254;-67
2023/06/07 06:35:53;;;;;;;6.40;4.13;;;17.10;99.90;;;;;;5150814;27;20440;-67
2023/06/07 06:38:19;;;;;;;4.80;3.80;;;17.20;99.90;;;;;;5150261;27;20210;-67
2023/06/07 06:40:45;;;;;;;9.47;3.67;;;17.20;99.90;;;;;;5150642;27;20407;-69
2023/06/07 06:43:16;;;;;;;5.53;3.80;;;17.30;99.90;;;;;;5150540;27;20469;-69
2023/06/07 06:45:42;;;;;;;4.40;3.27;;;17.30;99.90;;;;;;5150524;27;20194;-67
2023/06/07 06:48:08;;;;;;;5.70;4.23;;;17.40;99.90;;;;;;5114434;27;20433;-68
2023/06/07 06:50:34;;;;;;;4.67;3.87;;;17.50;99.90;;;;;;5131622;27;20434;-67
2023/06/07 06:53:00;;;;;;;5.93;3.50;;;17.70;99.90;;;;;;5150096;27;20424;-67
2023/06/07 06:55:25;;;;;;;7.23;4.23;;;17.80;99.90;;;;;;5150308;27;20194;-67
2023/06/07 06:57:51;;;;;;;6.90;3.97;;;18.10;99.90;;;;;;5149868;27;20215;-68
2023/06/07 07:00:17;;;;;;;5.13;3.90;;;18.00;99.90;;;;;;5131759;27;20191;-68
2023/06/07 07:02:42;;;;;;;5.13;3.53;;;18.00;99.90;;;;;;5131407;27;20183;-67
2023/06/07 07:05:09;;;;;;;7.50;3.70;;;18.10;99.90;;;;;;5150114;27;20440;-68
2023/06/07 07:07:35;;;;;;;5.43;4.37;;;18.20;99.90;;;;;;5131407;27;20203;-67
2023/06/07 07:10:01;;;;;;;4.00;3.63;;;18.20;99.90;;;;;;5150335;27;20421;-67
2023/06/07 07:12:26;;;;;;;4.13;3.73;;;18.20;99.90;;;;;;5150501;27;20227;-67
2023/06/07 07:14:52;;;;;;;5.13;3.50;;;18.30;99.90;;;;;;5131336;27;20425;-68
2023/06/07 07:17:19;;;;;;;5.40;3.50;;;18.40;99.90;;;;;;5150045;27;20221;-67
2023/06/07 07:19:45;;;;;;;5.43;4.23;;;18.50;99.90;;;;;;5131035;27;20210;-68
2023/06/07 07:22:10;;;;;;;4.03;3.50;;;18.50;99.90;;;;;;5150178;27;20442;-67
2023/06/07 07:24:36;;;;;;;7.33;3.27;;;18.60;99.90;;;;;;5150049;27;20232;-68
2023/06/07 07:27:02;;;;;;;5.70;3.43;;;18.70;99.90;;;;;;5130893;27;20213;-68
2023/06/07 07:29:28;;;;;;;3.60;3.30;;;18.60;99.90;;;;;;5149860;27;21282;-68
2023/06/07 07:31:53;;;;;;;4.30;3.57;;;18.70;99.90;;;;;;5149954;27;20196;-68
2023/06/07 07:34:19;;;;;;;7.00;3.90;;;18.80;99.90;;;;;;5149472;27;20170;-68
2023/06/07 07:36:45;;;;;;;3.83;3.33;;;18.80;99.90;;;;;;5149768;27;20180;-68
2023/06/07 07:39:11;;;;;;;4.80;3.80;;;18.90;99.90;;;;;;5149707;27;20479;-68
2023/06/07 07:41:40;;;;;;;4.43;4.03;;;19.00;99.90;;;;;;5149528;27;20173;-68
2023/06/07 07:44:06;;;;;;;3.63;3.33;;;19.10;99.90;;;;;;5149458;27;20417;-68
2023/06/07 07:46:31;;;;;;;6.43;4.03;;;19.30;99.90;;;;;;5149494;27;20747;-74
2023/06/07 07:48:57;;;;;;;4.43;4.00;;;19.20;99.90;;;;;;5131389;27;20456;-74
2023/06/07 07:51:23;;;;;;;4.23;3.93;;;19.30;99.90;;;;;;5131529;27;20647;-74
2023/06/07 07:53:52;;;;;;;5.40;3.90;;;19.40;99.90;;;;;;5150129;27;20189;-73
2023/06/07 07:56:18;;;;;;;6.60;3.30;;;19.50;99.90;;;;;;5150166;27;20789;-74
2023/06/07 07:58:45;;;;;;;5.67;3.70;;;19.50;99.90;;;;;;5149816;27;20472;-74
2023/06/07 08:01:11;;;;;;;5.33;3.67;;;19.60;99.90;;;;;;5150265;27;20834;-74
2023/06/07 08:03:37;;;;;;;4.30;3.70;;;19.70;99.90;;;;;;5150079;27;20410;-74
2023/06/07 08:06:03;;;;;;;3.80;3.37;;;19.70;99.90;;;;;;5150370;27;20976;-74
2023/06/07 08:08:28;;;;;;;9.93;3.30;;;19.80;99.90;;;;;;5150354;27;20253;-74
2023/06/07 08:10:54;;;;;;;5.87;4.07;;;20.00;99.90;;;;;;5149999;27;20464;-75
2023/06/07 08:13:20;;;;;;;3.70;3.20;;;20.00;99.90;;;;;;5131230;27;20732;-74
2023/06/07 08:15:46;;;;;;;3.27;2.97;;;20.10;99.90;;;;;;5149902;27;20183;-74
2023/06/07 08:18:12;;;;;;;4.17;3.30;;;20.20;99.90;;;;;;5149831;27;20211;-74
2023/06/07 08:20:38;;;;;;;6.00;2.53;;;20.30;99.90;;;;;;5150130;27;20406;-74
2023/06/07 08:23:05;;;;;;;3.03;2.60;;;20.50;99.90;;;;;;5150294;27;20416;-74
2023/06/07 08:25:30;;;;;;;2.97;2.77;;;20.70;99.90;;;;;;5149597;27;20591;-74
2023/06/07 08:27:56;;;;;;;11.70;3.40;;;20.90;99.90;;;;;;5130994;27;20488;-74
2023/06/07 08:30:22;;;;;;;5.37;2.97;;;21.00;99.90;;;;;;5149863;27;20196;-74
2023/06/07 08:32:47;;;;;;;3.23;2.93;;;21.20;99.90;;;;;;5149531;27;20533;-74
2023/06/07 08:35:13;;;;;;;4.10;2.70;;;21.20;97.90;;;;;;5149966;27;20208;-74
2023/06/07 08:37:39;;;;;;;5.40;2.83;;;21.30;97.30;;;;;;5149955;27;20224;-74
2023/06/07 08:40:06;;;;;;;4.00;3.23;;;21.60;98.10;;;;;;5149844;27;20176;-73
2023/06/07 08:42:32;;;;;;;4.40;3.43;;;21.70;97.80;;;;;;5149698;27;20528;-74
2023/06/07 08:44:59;;;;;;;5.10;3.57;;;21.80;95.50;;;;;;5114507;27;20926;-74
2023/06/07 08:47:27;;;;;;;6.93;2.77;;;21.90;95.90;;;;;;5150844;27;20434;-74
2023/06/07 08:49:56;;;;;;;4.03;2.70;;;22.00;96.60;;;;;;5130717;27;20429;-73
2023/06/07 08:52:23;;;;;;;7.20;3.27;;;22.30;96.80;;;;;;5149146;27;20430;-73
2023/06/07 08:54:49;;;;;;;9.47;2.80;;;22.50;95.50;;;;;;5149053;27;20419;-73
2023/06/07 08:57:18;;;;;;;7.13;3.13;;;22.80;96.60;;;;;;5129912;27;20495;-73
2023/06/07 08:59:45;;;;;;;8.07;3.30;;;23.10;94.10;;;;;;5129861;27;20423;-73
2023/06/07 09:02:12;;;;;;;4.87;3.33;;;23.20;92.10;;;;;;5148660;27;20559;-74
2023/06/07 09:04:40;;;;;;;4.00;3.60;;;23.20;93.20;;;;;;5130359;27;21011;-75
2023/06/07 09:07:07;;;;;;;8.77;3.87;;;23.30;92.60;;;;;;5148614;27;21024;-74
2023/06/07 09:09:34;;;;;;;4.13;3.37;;;23.20;92.40;;;;;;5113222;27;20809;-74
2023/06/07 09:12:00;;;;;;;9.40;3.40;;;23.30;92.80;;;;;;5149367;27;20414;-74
2023/06/07 09:14:28;;;;;;;3.20;2.90;;;23.60;93.10;;;;;;5096604;27;20419;-74
2023/06/07 09:16:57;;;;;;;5.17;3.43;;;23.90;90.70;;;;;;5113727;27;21051;-75
2023/06/07 09:19:34;;;;;;;5.37;2.80;;;24.20;90.40;;;;;;5130551;27;20517;-75
2023/06/07 09:22:02;;;;;;;6.67;2.80;;;24.30;86.30;;;;;;5130662;27;20425;-74
2023/06/07 09:24:28;;;;;;;3.80;2.60;;;24.50;87.00;;;;;;5149669;27;20410;-75
2023/06/07 09:26:54;;;;;;;4.90;3.50;;;24.70;86.30;;;;;;5130189;27;20776;-74
2023/06/07 09:29:20;;;;;;;6.97;2.73;;;24.80;87.50;;;;;;5148852;27;20428;-74
2023/06/07 09:31:45;;;;;;;3.70;2.70;;;25.10;87.20;;;;;;5113634;27;20415;-74
2023/06/07 09:34:26;;;;;;;4.27;3.40;;;25.20;85.70;;;;;;5149338;27;20175;-74
2023/06/07 09:36:57;;;;;;;5.03;3.50;;;25.40;84.60;;;;;;5150358;27;20702;-75
2023/06/07 09:39:25;;;;;;;5.93;3.40;;;25.40;83.30;;;;;;5153215;27;20880;-74
2023/06/07 09:41:52;;;;;;;6.00;2.90;;;25.60;82.30;;;;;;5134482;27;20413;-73
2023/06/07 09:44:21;;;;;;;3.90;3.10;;;25.60;80.50;;;;;;5153417;27;20914;-74
2023/06/07 09:46:47;;;;;;;4.60;2.83;;;25.80;79.80;;;;;;5153252;27;20413;-74
2023/06/07 09:49:12;;;;;;;3.30;2.67;;;25.80;75.60;;;;;;5134804;27;20427;-73
2023/06/07 09:51:40;;;;;;;4.73;2.70;;;26.00;78.10;;;;;;5153421;27;20192;-74
2023/06/07 09:54:08;;;;;;;3.17;2.80;;;26.20;78.10;;;;;;5153388;27;20680;-73
2023/06/07 09:56:39;;;;;;;7.80;3.40;;;26.30;78.10;;;;;;5153332;27;20420;-73
2023/06/07 09:59:10;;;;;;;3.40;2.90;;;26.20;76.70;;;;;;5153246;27;20490;-74
2023/06/07 10:01:37;;;;;;;5.60;2.70;;;26.30;75.20;;;;;;5153373;27;20398;-74
2023/06/07 10:04:05;;;;;;;6.63;2.80;;;26.50;76.20;;;;;;5153062;27;20412;-74
2023/06/07 10:06:32;;;;;;;6.33;3.07;;;26.70;75.30;;;;;;5134351;27;20426;-74
2023/06/07 10:09:04;;;;;;;5.83;3.30;;;27.00;74.40;;;;;;5153302;27;20504;-74
2023/06/07 10:11:34;;;;;;;5.23;3.30;;;27.10;73.10;;;;;;5153064;27;20421;-73
2023/06/07 10:14:16;;;;;;;5.30;3.00;;;27.30;72.80;;;;;;5134677;27;20758;-73
2023/06/07 10:16:55;;;;;;;5.63;3.27;;;27.20;73.00;;;;;;5152585;27;20413;-73
2023/06/07 10:19:25;;;;;;;6.50;2.80;;;27.20;71.40;;;;;;5134146;27;20460;-74
2023/06/07 10:21:53;;;;;;;8.50;3.27;;;27.40;71.30;;;;;;5152865;27;20409;-72
2023/06/07 10:24:24;;;;;;;4.03;3.23;;;27.50;70.20;;;;;;5133989;27;20414;-74
2023/06/07 10:26:55;;;;;;;7.33;3.20;;;27.40;68.30;;;;;;5152847;27;20953;-72
2023/06/07 10:29:45;;;;;;;5.07;3.30;;;27.50;70.10;;;;;;5153012;27;20414;-74
2023/06/07 10:32:21;;;;;;;4.50;3.00;;;27.60;66.60;;;;;;5152844;27;20842;-72
2023/06/07 10:34:48;;;;;;;10.50;3.60;;;27.50;67.60;;;;;;5152074;27;20448;-74
2023/06/07 10:37:17;;;;;;;8.90;3.37;;;27.70;67.80;;;;;;5133261;27;20521;-73
2023/06/07 10:39:44;;;;;;;6.60;3.00;;;27.80;67.00;;;;;;5151584;27;20414;-73
2023/06/07 10:42:10;;;;;;;3.50;3.20;;;27.90;66.20;;;;;;5132622;27;20494;-73
2023/06/07 10:44:37;;;;;;;3.27;3.00;;;27.80;66.70;;;;;;5151247;27;20416;-74
2023/06/07 10:47:21;;;;;;;5.57;3.43;;;27.90;65.90;;;;;;5151922;27;20422;-73
2023/06/07 10:49:47;;;;;;;8.63;2.83;;;27.90;63.20;;;;;;5132793;27;20984;-73
2023/06/07 10:52:15;;;;;;;4.57;3.17;;;28.10;62.30;;;;;;5151399;27;20434;-73
2023/06/07 10:54:41;;;;;;;6.87;3.33;;;28.20;61.70;;;;;;5151296;27;20410;-73
2023/06/07 10:57:07;;;;;;;4.37;3.53;;;28.30;59.30;;;;;;5132350;27;20433;-75
2023/06/07 10:59:34;;;;;;;10.77;3.60;;;28.40;61.60;;;;;;5115386;27;20769;-75
2023/06/07 11:02:26;;;;;;;7.43;3.60;;;28.40;62.70;;;;;;5150870;27;20433;-75
2023/06/07 11:04:54;;;;;;;6.93;3.40;;;28.30;60.80;;;;;;5115683;27;20436;-75
2023/06/07 11:07:33;;;;;;;3.40;2.67;;;28.20;61.60;;;;;;5151038;27;21009;-75
2023/06/07 11:10:04;;;;;;;5.40;3.20;;;28.00;61.90;;;;;;5151086;27;20909;-74
2023/06/07 11:12:36;;;;;;;3.37;3.00;;;27.90;61.50;;;;;;5150971;27;20500;-74
2023/06/07 11:15:30;;;;;;;3.10;2.90;;;27.70;64.00;;;;;;5151222;27;20554;-75
2023/06/07 11:18:00;;;;;;;9.57;3.43;;;27.50;63.80;;;;;;5151266;27;20461;-75
2023/06/07 11:20:38;;;;;;;3.93;3.40;;;27.30;64.20;;;;;;5150995;27;20413;-75
2023/06/07 11:23:22;;;;;;;3.33;3.00;;;27.20;64.80;;;;;;5151064;27;20485;-74
2023/06/07 11:25:58;;;;;;;2.90;2.70;;;27.30;63.90;;;;;;5151050;27;21237;-74
2023/06/07 11:28:28;;;;;;;8.30;3.20;;;27.40;63.10;;;;;;5132254;27;20440;-75
2023/06/07 11:30:55;;;;;;;5.70;3.80;;;27.30;65.40;;;;;;5151492;27;20470;-74
2023/06/07 11:33:21;;;;;;;3.03;2.80;;;27.30;63.00;;;;;;5133014;27;20467;-75
2023/06/07 11:35:48;;;;;;;4.37;2.97;;;27.20;62.60;;;;;;5132441;27;20516;-75
2023/06/07 11:38:14;;;;;;;4.10;3.07;;;27.10;59.50;;;;;;5149522;27;20502;-74
2023/06/07 11:40:39;;;;;;;3.20;2.90;;;27.10;61.30;;;;;;5149674;27;20414;-74
2023/06/07 11:43:09;;;;;;;8.23;3.30;;;27.20;61.20;;;;;;5150433;27;20187;-75
2023/06/07 11:45:35;;;;;;;4.90;3.33;;;27.20;61.00;;;;;;5150205;27;20203;-74
2023/06/07 11:48:02;;;;;;;4.00;2.90;;;27.20;59.00;;;;;;5131090;27;21041;-73
2023/06/07 11:50:27;;;;;;;5.37;3.80;;;27.30;59.10;;;;;;5149811;27;20474;-74
2023/06/07 11:52:53;;;;;;;4.17;2.60;;;27.20;58.70;;;;;;5149846;27;20419;-74
2023/06/07 11:55:20;;;;;;;6.90;3.13;;;27.30;58.10;;;;;;5150027;27;20173;-74
2023/06/07 11:57:48;;;;;;;4.60;3.17;;;27.30;57.90;;;;;;5113918;27;21081;-73
2023/06/07 12:00:18;;;;;;;3.23;2.90;;;27.30;58.20;;;;;;5148970;27;20964;-74
2023/06/07 12:02:44;;;;;;;3.80;2.77;;;27.20;57.10;;;;;;5149692;27;20415;-74
2023/06/07 12:05:10;;;;;;;2.87;2.63;;;27.10;58.80;;;;;;5150190;27;20789;-73
2023/06/07 12:07:36;;;;;;;3.97;3.17;;;27.20;56.90;;;;;;5149920;27;20207;-74
2023/06/07 12:10:06;;;;;;;4.20;3.37;;;27.00;56.60;;;;;;5149918;27;20410;-75
2023/06/07 12:12:32;;;;;;;6.50;3.20;;;27.00;57.30;;;;;;5149866;27;20417;-73
2023/06/07 12:15:04;;;;;;;3.67;3.30;;;27.00;56.80;;;;;;5149986;27;20410;-73
2023/06/07 12:17:36;;;;;;;3.70;2.73;;;27.10;57.80;;;;;;5130841;27;20298;-74
2023/06/07 12:20:13;;;;;;;3.90;3.43;;;27.10;57.50;;;;;;5113810;27;20445;-73
2023/06/07 12:22:39;;;;;;;5.17;3.10;;;27.30;57.70;;;;;;5149685;27;20431;-74
2023/06/07 12:25:15;;;;;;;5.80;3.20;;;27.40;55.20;;;;;;5149684;27;20553;-73
2023/06/07 12:27:47;;;;;;;3.10;2.90;;;27.20;55.60;;;;;;5150050;27;20208;-73
2023/06/07 12:30:14;;;;;;;3.10;2.80;;;27.10;56.30;;;;;;5150099;27;20465;-74
2023/06/07 12:32:39;;;;;;;8.10;3.07;;;27.20;56.20;;;;;;5131292;27;20464;-74
2023/06/07 12:35:10;;;;;;;4.53;3.37;;;27.20;56.80;;;;;;5150056;27;20232;-74
2023/06/07 12:37:36;;;;;;;3.83;3.30;;;27.30;56.80;;;;;;5150087;27;20267;-75
2023/06/07 12:40:07;;;;;;;4.40;3.40;;;27.40;56.30;;;;;;5114399;27;20437;-74
2023/06/07 12:42:33;;;;;;;4.07;3.30;;;27.60;55.20;;;;;;5150262;27;20260;-74
2023/06/07 12:44:59;;;;;;;4.70;2.83;;;27.50;53.70;;;;;;5149332;27;20514;-74
2023/06/07 12:47:25;;;;;;;4.87;3.00;;;27.40;53.80;;;;;;5114189;27;20544;-74